Flight Track Log - Related Links

Times and Time Zones

All times are in EDT time to prevent confusion due to time zone crossing. See the XOJ549 flight status page for this flight to view local times or setup timezone preferences in your user account.

Time Position Orientation Groundspeed Altitude Reporting Facility
EDT Latitude Longitude Course Direction KTS MPH feet Rate Location/Type
Tue 10:38:12 AM 32.5833 -117.0167 319° Northwest 181 208 3,000  Level Southern California TRACON
Tue 10:39:12 AM 32.6000 -117.1000 283° West 230 265 6,200 3,400 Climbing Southern California TRACON
Tue 10:40:12 AM 32.5833 -117.1833 257° West 267 307 9,800 2,000 Climbing Southern California TRACON
Tue 10:41:06 AM 32.5833 -117.2667 270° West 292 336 10,000 105 Climbing Southern California TRACON
Tue 10:42:06 AM 32.6500 -117.3500 314° West 331 381 10,000  Level Southern California TRACON
Tue 10:42:24 AM 32.6631 -117.3569 336° Northwest 331 381 10,000  Level Los Angeles Center
Tue 10:43:00 AM 32.8981 -117.3034 319° Northwest  Level FlightAware Approximate
Tue 10:43:26 AM 32.7394 -117.4156 327° Northwest 329 379 10,000  Level Los Angeles Center
Tue 10:44:27 AM 32.8156 -117.4744 327° Northwest 320 368 10,000  Level Los Angeles Center
Tue 10:45:29 AM 32.8869 -117.5319 326° Northwest 315 362 10,000  Level Los Angeles Center
Tue 10:46:31 AM 32.9597 -117.5897 326° Northwest 314 361 10,000  Level Los Angeles Center
Tue 10:47:32 AM 33.0322 -117.6489 326° Northwest 316 364 10,000  Level Los Angeles Center
Tue 10:48:34 AM 33.1036 -117.7103 324° Northwest 317 365 10,000  Level Los Angeles Center
Tue 10:49:36 AM 33.1842 -117.7536 336° Northwest 320 368 10,000  Level Los Angeles Center
Tue 10:50:37 AM 33.2825 -117.8017 338° Northwest 319 367 10,000  Level Los Angeles Center
Tue 10:51:39 AM 33.3633 -117.8419 337° Northwest 318 366 10,000 -189 Level Los Angeles Center
Tue 10:52:12 AM 33.4167 -117.8667 339° North 281 323 9,700 -968 Descending Southern California TRACON
Tue 10:52:41 AM 33.4350 -117.8778 333° Northwest 297 342 9,000 -1,133 Descending Los Angeles Center
Tue 10:53:42 AM 33.5022 -117.9133 336° Northwest 274 315 8,000 -488 Descending Los Angeles Center
Tue 10:54:44 AM 33.5731 -117.9486 337° Northwest 272 313 8,000  Level Los Angeles Center
Tue 10:55:18 AM 33.6333 -117.9833 334° Northwest 284 327 8,000  Level Southern California TRACON
Tue 10:56:12 AM 33.7000 -118.0167 337° Northwest 280 322 8,000  Level Southern California TRACON
Tue 10:57:18 AM 33.7667 -118.0500 337° Northwest 305 351 8,000  Level Southern California TRACON
Tue 10:58:18 AM 33.8333 -118.0833 337° Northwest 273 314 8,000 -381 Level Southern California TRACON
Tue 10:59:24 AM 33.9167 -118.1333 334° Northwest 243 280 7,200 -638 Descending Southern California TRACON
Tue 10:59:52 AM 33.9294 -118.1439 326° Northwest 252 290 7,000 -133 Descending Los Angeles Center
Tue 11:00:54 AM 33.9875 -118.1781 334° Northwest 238 274 7,000 -484 Level Los Angeles Center
Tue 11:01:56 AM 34.0547 -118.2175 334° Northwest 227 261 6,000 -968 Descending Los Angeles Center
Tue 11:02:58 AM 34.1094 -118.2522 332° Northwest 226 260 5,000 -726 Descending Los Angeles Center
Tue 11:04:00 AM 34.1258 -118.2939 295° West 182 209 4,500 -1,161 Descending Los Angeles Center
Tue 11:05:02 AM 34.1014 -118.3444 240° Southwest 177 204 2,600 -1,171 Descending Los Angeles Center
Tue 11:06:03 AM 34.0717 -118.3794 224° Southwest 164 189 2,100 -683 Descending Los Angeles Center
Tue 11:07:05 AM 34.0458 -118.4119 226° Southwest 149 171 1,200 -919 Descending Los Angeles Center
Tue 11:08:07 AM 34.0186 -118.4492 229° Southwest 134 154 200 -968 Descending Los Angeles Center

Login

Don't have an account? Register now (free) for customized features, flight alerts, and more!